Flight Track Log - Related Links

Times and Time Zones

All times are in EST time to prevent confusion due to time zone crossing. See the AWE1905 flight status page for this flight to view local times or setup timezone preferences in your user account.

Time Position Orientation Groundspeed Altitude Reporting Facility
EST Latitude Longitude Course Direction KTS MPH feet Rate Location/Type
Fri 11:31:34 AM 38.8167 -77.0333 180° South 160 184 1,900  Level Potomac TRACON
Fri 11:32:35 AM 38.7500 -77.0333 180° South 243 280 3,200 1,835 Climbing Potomac TRACON
Fri 11:33:35 AM 38.7000 -76.9667 134° Southeast 279 321 5,600 2,100 Climbing Potomac TRACON
Fri 11:34:00 AM 38.3938 -77.1672 180° South  Level Estimated
Fri 11:34:35 AM 38.6500 -76.8833 128° Southeast 294 338 7,400  Level Potomac TRACON
Fri 11:35:00 AM 38.2792 -77.1993 173° South  Level Estimated
Fri 11:35:44 AM 38.5989 -76.7978 127° Southeast 305 351 9,600  Level Washington Center
Fri 11:36:00 AM 38.1646 -77.2313 180° South  Level Estimated
Fri 11:36:44 AM 38.5308 -76.7197 138° Southeast 311 358 11,700  Level Washington Center
Fri 11:37:42 AM 38.4433 -76.7103 175° South 303 349 14,400 2,672 Climbing Washington Center
Fri 11:38:43 AM 38.3536 -76.7011 175° South 310 357 17,000 2,213 Climbing Washington Center
Fri 11:39:44 AM 38.2536 -76.6836 172° South 324 373 18,900 1,835 Climbing Washington Center
Fri 11:40:44 AM 38.1622 -76.6719 174° South 329 379 20,700 1,678 Climbing Washington Center
Fri 11:41:42 AM 38.0664 -76.6600 174° South 335 386 22,200 1,424 Climbing Washington Center
Fri 11:42:42 AM 37.9642 -76.6453 174° South 346 398 23,500 1,488 Climbing Washington Center
Fri 11:43:43 AM 37.8581 -76.6333 175° South 369 425 25,200 1,537 Climbing Washington Center
Fri 11:44:43 AM 37.7517 -76.6186 174° South 380 437 26,600 1,289 Climbing Washington Center
Fri 11:45:44 AM 37.6433 -76.6042 174° South 390 449 27,800 1,190 Climbing Washington Center
Fri 11:46:44 AM 37.5308 -76.5869 173° South 396 456 29,000 1,119 Climbing Washington Center
Fri 11:47:42 AM 37.4142 -76.5725 174° South 407 468 30,000 1,000 Climbing Washington Center
Fri 11:48:44 AM 37.2994 -76.5578 174° South 407 468 31,000 1,000 Climbing Washington Center
Fri 11:49:42 AM 37.1808 -76.5278 169° South 418 481 32,000 504 Climbing Washington Center
Fri 11:50:43 AM 37.0647 -76.4586 155° Southeast 437 503 32,000  Level Washington Center
Fri 11:51:42 AM 36.9442 -76.3872 155° Southeast 451 519 32,000  Level Washington Center
Fri 11:52:43 AM 36.8256 -76.3183 155° Southeast 461 531 32,000  Level Washington Center
Fri 11:53:43 AM 36.7092 -76.2553 157° South 461 531 32,000  Level Washington Center
Fri 11:54:42 AM 36.6028 -76.2672 185° South 403 464 32,000  Level Washington Center
Fri 11:55:43 AM 36.5044 -76.3156 202° Southwest 380 437 32,000 -49 Level Washington Center
Fri 11:56:44 AM 36.4081 -76.3583 200° South 375 432 31,900 -50 Descending Washington Center
Fri 11:57:42 AM 36.3119 -76.4067 202° Southwest 375 432 31,900 51 Level Washington Center
Fri 11:58:42 AM 36.2133 -76.4519 200° South 375 432 32,000 50 Climbing Washington Center
Fri 11:59:43 AM 36.1150 -76.4969 200° South 375 432 32,000 -50 Level Washington Center
Fri 12:00:43 PM 36.0208 -76.5422 201° Southwest 375 432 31,900  Descending Washington Center
Fri 12:01:42 PM 35.9225 -76.5847 199° South 375 432 32,000 50 Climbing Washington Center
Fri 12:02:44 PM 35.8261 -76.6322 202° Southwest 375 432 32,000  Level Washington Center
Fri 12:03:42 PM 35.7275 -76.6794 201° Southwest 375 432 32,000  Level Washington Center
Fri 12:04:43 PM 35.6292 -76.7267 201° Southwest 375 432 32,000  Level Washington Center
Fri 12:05:44 PM 35.5283 -76.7711 200° South 380 437 32,000  Level Washington Center
Fri 12:06:44 PM 35.4319 -76.8183 202° Southwest 380 437 32,000  Level Washington Center
Fri 12:07:43 PM 35.3314 -76.8625 200° South 373 429 32,000  Level Washington Center
Fri 12:08:43 PM 35.2328 -76.9067 200° South 378 435 32,000  Level Washington Center
Fri 12:09:43 PM 35.1322 -76.9558 202° Southwest 378 435 32,000  Level Washington Center
Fri 12:10:42 PM 35.0378 -77.0050 203° Southwest 378 435 32,000 -50 Level Washington Center
Fri 12:11:43 PM 34.9369 -77.0489 200° South 378 435 31,900 -50 Descending Washington Center
Fri 12:12:43 PM 34.8342 -77.0925 199° South 378 435 31,900 50 Level Washington Center
Fri 12:13:44 PM 34.7356 -77.1389 201° Southwest 383 441 32,000 50 Climbing Washington Center
Fri 12:14:42 PM 34.6328 -77.1822 199° South 388 447 32,000  Level Washington Center
Fri 12:15:43 PM 34.5319 -77.2283 201° Southwest 388 447 32,000  Level Washington Center
Fri 12:16:43 PM 34.4292 -77.2742 200° South 388 447 32,000  Level Washington Center
Fri 12:17:43 PM 34.3261 -77.3222 201° Southwest 388 447 32,000  Level Washington Center
Fri 12:18:44 PM 34.2256 -77.3653 199° South 388 447 32,000  Level Washington Center
Fri 12:19:44 PM 34.1225 -77.4108 200° South 388 447 32,000 -51 Level Washington Center
Fri 12:20:42 PM 34.0197 -77.4586 201° Southwest 393 452 31,900  Descending Washington Center
Fri 12:21:42 PM 33.9189 -77.5014 199° South 388 447 32,000 62 Climbing Washington Center
Fri 12:22:19 PM 33.8539 -77.5289 199° South 391 450 32,000  Level Jacksonville Center
Fri 12:23:19 PM 33.7533 -77.5722 200° South 397 457 32,000 -50 Level Jacksonville Center
Fri 12:24:19 PM 33.6533 -77.6208 202° Southwest 397 457 31,900 -50 Descending Jacksonville Center
Fri 12:25:19 PM 33.5486 -77.6644 199° South 397 457 31,900 50 Level Jacksonville Center
Fri 12:26:19 PM 33.4483 -77.7100 201° Southwest 397 457 32,000 50 Climbing Jacksonville Center
Fri 12:27:19 PM 33.3478 -77.7558 201° Southwest 397 457 32,000  Level Jacksonville Center
Fri 12:28:19 PM 33.2453 -77.7989 199° South 397 457 32,000  Level Jacksonville Center
Fri 12:29:19 PM 33.1431 -77.8469 201° Southwest 397 457 32,000 -50 Level Jacksonville Center
Fri 12:30:19 PM 33.0425 -77.8897 200° South 397 457 31,900 -50 Descending Jacksonville Center
Fri 12:31:19 PM 32.9417 -77.9325 200° South 397 457 31,900 50 Level Jacksonville Center
Fri 12:32:19 PM 32.8392 -77.9753 199° South 392 451 32,000 50 Climbing Jacksonville Center
Fri 12:33:19 PM 32.7486 -78.0122 199° South 392 451 32,000  Level Jacksonville Center
Fri 12:34:19 PM 32.6461 -78.0597 201° Southwest 392 451 32,000  Level Jacksonville Center
Fri 12:35:19 PM 32.5433 -78.1022 199° South 392 451 32,000  Level Jacksonville Center
Fri 12:36:19 PM 32.4408 -78.1469 200° South 392 451 32,000  Level Jacksonville Center
Fri 12:37:19 PM 32.3403 -78.1914 200° South 392 451 32,000  Level Jacksonville Center
Fri 12:38:19 PM 32.2292 -78.2389 200° South 392 451 32,000 -50 Level Jacksonville Center
Fri 12:39:19 PM 32.1264 -78.2833 200° South 392 451 31,900 -50 Descending Jacksonville Center
Fri 12:40:19 PM 32.0258 -78.3278 201° Southwest 392 451 31,900 50 Level Jacksonville Center
Fri 12:41:19 PM 31.9231 -78.3719 200° South 398 458 32,000 50 Climbing Jacksonville Center
Fri 12:42:19 PM 31.8181 -78.4161 200° South 398 458 32,000  Level Jacksonville Center
Fri 12:43:19 PM 31.7153 -78.4578 199° South 404 465 32,000  Level Jacksonville Center
Fri 12:44:19 PM 31.6103 -78.5042 201° Southwest 400 460 32,000  Level Jacksonville Center
Fri 12:45:19 PM 31.5056 -78.5481 200° South 402 463 32,000  Level Jacksonville Center
Fri 12:46:19 PM 31.4047 -78.5894 199° South 402 463 32,000  Level Jacksonville Center
Fri 12:47:19 PM 31.2975 -78.6356 200° South 397 457 32,000  Level Jacksonville Center
Fri 12:48:19 PM 31.1947 -78.6792 200° South 400 460 32,000  Level Jacksonville Center
Fri 12:49:19 PM 31.0936 -78.7200 199° South 393 452 32,000 -50 Level Jacksonville Center
Fri 12:50:19 PM 30.9867 -78.7636 199° South 403 464 31,900  Descending Jacksonville Center
Fri 12:51:19 PM 30.8753 -78.8072 199° South 408 470 32,000 50 Climbing Jacksonville Center
Fri 12:52:19 PM 30.7767 -78.8525 202° Southwest 402 463 32,000  Level Jacksonville Center
Fri 12:53:19 PM 30.6714 -78.8956 199° South 407 468 32,000 -50 Level Jacksonville Center
Fri 12:54:19 PM 30.5642 -78.9386 199° South 407 468 31,900 -50 Descending Jacksonville Center
Fri 12:55:19 PM 30.4569 -78.9817 199° South 401 461 31,900 50 Level Jacksonville Center
Fri 12:56:19 PM 30.3433 -79.0175 195° South 406 467 32,000 40 Climbing Jacksonville Center
Fri 12:57:48 PM 30.1925 -79.0539 192° South 418 481 32,000  Level Miami Center
Fri 12:58:48 PM 30.0858 -79.0831 193° South 412 474 32,000  Level Miami Center
Fri 12:59:48 PM 29.9728 -79.1117 192° South 412 474 32,000  Level Miami Center
Fri 01:00:48 PM 29.8639 -79.1453 195° South 412 474 32,000  Level Miami Center
Fri 01:01:48 PM 29.7550 -79.1717 192° South 412 474 32,000  Level Miami Center
Fri 01:02:48 PM 29.6481 -79.2006 193° South 412 474 32,000  Level Miami Center
Fri 01:03:48 PM 29.5350 -79.2292 192° South 412 474 32,000  Level Miami Center
Fri 01:04:48 PM 29.4219 -79.2553 191° South 412 474 32,000  Level Miami Center
Fri 01:05:48 PM 29.3108 -79.2836 193° South 412 474 32,000 50 Level Miami Center
Fri 01:06:48 PM 29.2019 -79.3122 193° South 412 474 32,100  Climbing Miami Center
Fri 01:07:48 PM 29.0869 -79.3381 191° South 417 480 32,000 -50 Descending Miami Center
Fri 01:08:48 PM 28.9800 -79.3667 193° South 411 473 32,000  Level Miami Center
Fri 01:09:48 PM 28.8708 -79.3950 193° South 411 473 32,000  Level Miami Center
Fri 01:10:48 PM 28.7578 -79.4231 192° South 411 473 32,000  Level Miami Center
Fri 01:11:48 PM 28.6467 -79.4514 193° South 411 473 32,000  Level Miami Center
Fri 01:12:48 PM 28.5333 -79.4769 191° South 411 473 32,000  Level Miami Center
Fri 01:13:48 PM 28.4222 -79.5075 194° South 411 473 32,000  Level Miami Center
Fri 01:14:48 PM 28.3069 -79.5331 191° South 416 479 32,000  Level Miami Center
Fri 01:15:48 PM 28.1981 -79.5611 193° South 416 479 32,000  Level Miami Center
Fri 01:16:48 PM 28.0886 -79.5986 197° South 416 479 32,000 -50 Level Miami Center
Fri 01:17:48 PM 28.0161 -79.6814 225° Southwest 377 434 31,900 -800 Descending Miami Center
Fri 01:18:48 PM 27.9561 -79.7669 232° Southwest 356 410 30,400 -950 Descending Miami Center
Fri 01:19:48 PM 27.8936 -79.8547 231° Southwest 361 415 30,000 -200 Descending Miami Center
Fri 01:20:48 PM 27.8356 -79.9422 233° Southwest 361 415 30,000 -50 Level Miami Center
Fri 01:21:48 PM 27.7667 -80.0342 230° Southwest 355 409 29,900 -500 Descending Miami Center
Fri 01:22:48 PM 27.6800 -80.0858 208° Southwest 347 399 29,000 -950 Descending Miami Center
Fri 01:23:48 PM 27.5761 -80.0572 166° South 337 388 28,000 -1,000 Descending Miami Center
Fri 01:24:48 PM 27.4944 -79.9706 137° Southeast 343 395 27,000 -1,000 Descending Miami Center
Fri 01:25:48 PM 27.4128 -79.8911 139° Southeast 363 418 26,000 -1,150 Descending Miami Center
Fri 01:26:48 PM 27.3392 -79.8075 135° Southeast 378 435 24,700 -1,000 Descending Miami Center
Fri 01:27:48 PM 27.2483 -79.7561 153° Southeast 372 428 24,000 -350 Descending Miami Center
Fri 01:28:48 PM 27.1633 -79.7328 166° South 357 411 24,000 -1,250 Level Miami Center
Fri 01:29:48 PM 27.0678 -79.7025 164° South 357 411 21,500 -2,600 Descending Miami Center
Fri 01:30:48 PM 26.9681 -79.6744 166° South 357 411 18,800 -2,350 Descending Miami Center
Fri 01:31:48 PM 26.8831 -79.6492 165° South 337 388 16,800 -2,067 Descending Miami Center
Fri 01:33:48 PM 26.7111 -79.6847 190° South 322 371 12,600 -1,897 Descending Miami Center
Fri 01:34:23 PM 26.6589 -79.6786 174° South 300 345 11,900 -1,200 Descending Miami Center
Fri 01:34:48 PM 26.6361 -79.6736 169° South 303 349 11,400 -1,500 Descending Miami Center
Fri 01:35:31 PM 26.5694 -79.6650 173° South 291 335 10,200 -1,600 Descending Miami Center
Fri 01:35:48 PM 26.5486 -79.6597 167° South 303 349 9,800 -1,200 Descending Miami Center
Fri 01:36:26 PM 26.4944 -79.6539 174° South 288 331 9,100 -800 Descending Miami Center
Fri 01:36:48 PM 26.4778 -79.6489 165° South 288 331 9,000 -353 Descending Miami Center
Fri 01:37:34 PM 26.4128 -79.6636 191° South 277 319 8,700 -700 Descending Miami Center
Fri 01:37:48 PM 26.4061 -79.6819 248° West 253 291 8,300 -764 Descending Miami Center
Fri 01:38:29 PM 26.3967 -79.7397 260° West 263 303 8,000 -300 Descending Miami Center
Fri 01:38:48 PM 26.3964 -79.7536 269° West 218 251 8,000  Level Miami Center
Fri 01:39:30 PM 26.3867 -79.8161 260° West 241 277 8,000 -300 Level Miami Center
Fri 01:39:48 PM 26.3864 -79.8344 269° West 233 268 7,700 -1,258 Descending Miami Center
Fri 01:40:32 PM 26.3603 -79.8803 238° Southwest 239 275 6,700 -1,300 Descending Miami Center
Fri 01:40:48 PM 26.3519 -79.8869 216° Southwest 235 270 6,400 -764 Descending Miami Center
Fri 01:41:27 PM 26.3136 -79.9231 220° Southwest 237 273 6,000 -400 Descending Miami Center
Fri 01:41:48 PM 26.2986 -79.9389 223° Southwest 235 270 6,000  Level Miami Center
Fri 01:42:34 PM 26.2581 -79.9819 224° Southwest 240 276 6,000  Level Miami Center
Fri 01:42:48 PM 26.2558 -79.9819 180° South 240 276 6,000  Level Miami Center
Fri 01:43:36 PM 26.2069 -80.0292 221° Southwest 239 275 6,000  Level Miami Center
Fri 01:43:48 PM 26.2067 -80.0339 266° West 240 276 6,000  Level Miami Center
Fri 01:44:37 PM 26.1678 -80.0906 233° Southwest 246 283 6,000  Level Miami Center
Fri 01:45:39 PM 26.1475 -80.1642 253° West 248 285 6,000 -387 Level Miami Center
Fri 01:46:41 PM 26.1500 -80.2383 272° West 235 270 5,200 -927 Descending Miami Center
Fri 01:47:42 PM 26.1481 -80.3122 268° West 228 262 4,100 -585 Descending Miami Center
Fri 01:48:44 PM 26.1444 -80.3769 266° West 203 234 4,000 -49 Descending Miami Center
Fri 01:49:45 PM 26.1306 -80.4319 254° West 190 219 4,000 -439 Level Miami Center
Fri 01:50:47 PM 26.0831 -80.4192 166° South 180 207 3,100 -732 Descending Miami Center
Fri 01:51:48 PM 26.0758 -80.3703 99° East 167 192 2,500 -328 Descending Miami Center
Fri 01:52:55 PM 26.0753 -80.3078 91° East 170 196 2,400 -439 Descending Miami Center
Fri 01:53:51 PM 26.0742 -80.2617 92° East 168 193 1,600 -769 Descending Miami Center
Fri 01:54:52 PM 26.0753 -80.2175 88° East 134 154 900 -689 Descending Miami Center

Login

Don't have an account? Register now (free) for customized features, flight alerts, and more!